Time;durP1;ratioP1;P1;durP2;ratioP2;P2;SDS_P1;SDS_P2;PMS_P1;PMS_P2;Temp;Humidity;BMP_temperature;BMP_pressure;BME280_temperature;BME280_humidity;BME280_pressure;Samples;Min_cycle;Max_cycle;Signal;HPM_P1;HPM_P2
2021/12/22 00:05:30;;;;;;;22.33;9.65;;;-0.70;99.90;;;;;;5021668;28;20045;-82
2021/12/22 00:08:22;;;;;;;24.95;9.80;;;-0.70;99.90;;;;;;5037372;28;20045;-82
2021/12/22 00:11:03;;;;;;;;;;;;;;;;;;;;;
2021/12/22 00:13:57;;;;;;;;;;;;;;;;;;;;;
2021/12/22 00:16:31;;;;;;;17.77;8.63;;;-0.70;99.90;;;;;;5034360;28;20191;-83
2021/12/22 00:19:22;;;;;;;19.63;10.23;;;-0.70;99.90;;;;;;5021851;28;20079;-84
2021/12/22 00:25:26;;;;;;;21.95;10.80;;;-0.70;99.90;;;;;;5032246;28;20057;-83
2021/12/22 00:31:22;;;;;;;17.83;9.07;;;-0.70;99.90;;;;;;5054031;28;20044;-82
2021/12/22 00:34:15;;;;;;;;;;;;;;;;;;;;;
2021/12/22 00:40:11;;;;;;;;;;;;;;;;;;;;;
2021/12/22 00:49:42;;;;;;;17.20;9.75;;;-0.80;99.90;;;;;;4959259;28;20049;-82
2021/12/22 00:52:16;;;;;;;17.95;9.50;;;-0.80;99.90;;;;;;5040734;28;20045;-82
2021/12/22 00:55:02;;;;;;;18.33;9.38;;;-0.80;99.90;;;;;;5033575;28;20041;-83
2021/12/22 00:57:42;;;;;;;19.42;9.68;;;-0.80;99.90;;;;;;5036317;28;20033;-83
2021/12/22 01:00:11;;;;;;;21.52;9.95;;;-0.90;99.90;;;;;;5024377;28;20148;-84
2021/12/22 01:03:05;;;;;;;21.48;9.35;;;-0.90;99.90;;;;;;5057311;28;20040;-82
2021/12/22 01:05:40;;;;;;;;;;;;;;;;;;;;;
2021/12/22 01:08:09;;;;;;;16.90;9.23;;;-0.90;99.90;;;;;;5037896;28;20045;-81
2021/12/22 01:14:50;;;;;;;19.40;9.77;;;-0.90;99.90;;;;;;5051672;28;20044;-83
2021/12/22 01:17:37;;;;;;;16.33;9.48;;;-1.00;99.90;;;;;;5037103;28;20445;-82
2021/12/22 01:20:36;;;;;;;18.27;10.13;;;-1.00;99.90;;;;;;5055115;28;20166;-82
2021/12/22 01:23:33;;;;;;;22.05;9.73;;;-1.00;99.90;;;;;;5054885;28;20059;-83
2021/12/22 01:29:37;;;;;;;16.13;9.38;;;-1.10;99.90;;;;;;5027958;28;20815;-82
2021/12/22 01:32:12;;;;;;;19.88;9.45;;;-1.00;99.90;;;;;;5038059;28;20040;-83
2021/12/22 01:34:49;;;;;;;15.20;8.73;;;-1.10;99.90;;;;;;5040283;28;20108;-83
2021/12/22 01:37:41;;;;;;;18.98;8.63;;;-1.20;99.90;;;;;;5036634;28;20071;-83
2021/12/22 01:40:13;;;;;;;18.17;9.38;;;-1.20;99.90;;;;;;5039756;28;20127;-81
2021/12/22 01:42:49;;;;;;;17.73;9.60;;;-1.30;99.90;;;;;;5037900;28;20037;-82
2021/12/22 01:52:01;;;;;;;18.88;9.60;;;-1.40;99.90;;;;;;5037021;28;20526;-82
2021/12/22 01:54:32;;;;;;;19.35;9.43;;;-1.40;99.90;;;;;;5022715;28;20056;-83
2021/12/22 01:57:06;;;;;;;18.38;7.97;;;-1.40;99.90;;;;;;5045427;28;20037;-83
2021/12/22 01:59:33;;;;;;;14.68;7.90;;;-1.40;99.90;;;;;;5046350;28;20051;-84
2021/12/22 02:01:59;;;;;;;18.27;9.43;;;-1.50;99.90;;;;;;5049241;28;20059;-83
2021/12/22 02:04:25;;;;;;;18.00;9.93;;;-1.50;99.90;;;;;;5041113;28;20075;-83
2021/12/22 02:06:53;;;;;;;18.80;9.10;;;-1.50;99.90;;;;;;5034336;28;20041;-83
2021/12/22 02:12:06;;;;;;;25.20;10.18;;;-1.50;99.90;;;;;;5052852;28;20041;-83
2021/12/22 02:14:32;;;;;;;18.60;9.85;;;-1.50;99.90;;;;;;5020526;28;20041;-83
2021/12/22 02:16:57;;;;;;;17.27;8.27;;;-1.50;99.90;;;;;;5037424;28;20044;-83
2021/12/22 02:19:23;;;;;;;20.40;9.73;;;-1.60;99.90;;;;;;5023872;28;20055;-84
2021/12/22 02:21:54;;;;;;;18.80;9.77;;;-1.60;99.90;;;;;;5038505;28;20036;-83
2021/12/22 02:24:19;;;;;;;18.10;9.50;;;-1.60;99.90;;;;;;5021164;28;20033;-83
2021/12/22 02:26:54;;;;;;;16.00;9.17;;;-1.60;99.90;;;;;;5035335;28;20069;-83
2021/12/22 02:29:34;;;;;;;16.00;9.15;;;-1.70;99.90;;;;;;5036741;28;20041;-84
2021/12/22 02:32:06;;;;;;;17.23;9.85;;;-1.70;99.90;;;;;;5024179;28;20606;-83
2021/12/22 02:34:40;;;;;;;19.67;9.50;;;-1.70;99.90;;;;;;5038833;28;20041;-83
2021/12/22 02:37:11;;;;;;;15.55;8.60;;;-1.70;99.90;;;;;;5037968;28;20037;-83
2021/12/22 02:39:37;;;;;;;20.48;9.45;;;-1.70;99.90;;;;;;5023685;28;20551;-82
2021/12/22 02:42:09;;;;;;;15.20;9.27;;;-1.70;99.90;;;;;;5033847;28;20086;-83
2021/12/22 02:44:35;;;;;;;16.90;9.00;;;-1.70;99.90;;;;;;5018397;28;20033;-83
2021/12/22 02:47:15;;;;;;;15.83;8.07;;;-1.70;99.90;;;;;;5037898;28;20040;-84
2021/12/22 02:49:40;;;;;;;17.42;9.60;;;-1.70;99.90;;;;;;5038411;28;20029;-83
2021/12/22 02:52:08;;;;;;;18.27;8.23;;;-1.80;99.90;;;;;;5041651;28;20037;-83
2021/12/22 02:54:41;;;;;;;16.05;8.57;;;-1.80;99.90;;;;;;5018983;28;20033;-85
2021/12/22 02:57:22;;;;;;;20.48;8.90;;;-1.90;99.90;;;;;;5037119;28;20051;-84
2021/12/22 03:00:23;;;;;;;18.38;8.65;;;-1.90;99.90;;;;;;5037554;28;20592;-84
2021/12/22 03:02:56;;;;;;;;;;;;;;;;;;;;;
2021/12/22 03:05:50;;;;;;;15.60;8.57;;;-1.90;99.90;;;;;;5051747;28;20032;-84
2021/12/22 03:08:28;;;;;;;;;;;;;;;;;;;;;
2021/12/22 03:11:06;;;;;;;16.83;8.57;;;-2.00;99.90;;;;;;5047523;22;20133;-67
2021/12/22 03:13:32;;;;;;;19.33;9.70;;;-1.90;99.90;;;;;;5068783;22;20040;-72
2021/12/22 03:15:58;;;;;;;20.85;8.52;;;-2.00;99.90;;;;;;5022548;28;20566;-72
2021/12/22 03:18:24;;;;;;;18.13;8.57;;;-2.00;99.90;;;;;;5024176;28;20164;-72
2021/12/22 03:20:58;;;;;;;24.25;9.50;;;-2.00;99.90;;;;;;5018802;28;20232;-72
2021/12/22 03:23:24;;;;;;;16.83;8.65;;;-2.00;99.90;;;;;;5038115;28;20095;-72
2021/12/22 03:25:52;;;;;;;23.40;8.77;;;-2.10;99.90;;;;;;5006048;28;20570;-71
2021/12/22 03:28:17;;;;;;;18.45;9.32;;;-2.00;99.90;;;;;;5039988;28;20048;-72
2021/12/22 03:30:43;;;;;;;19.67;9.57;;;-2.10;99.90;;;;;;5026868;28;20032;-71
2021/12/22 03:33:09;;;;;;;17.43;9.10;;;-2.10;99.90;;;;;;5024032;28;20165;-72
2021/12/22 03:35:35;;;;;;;20.77;9.97;;;-2.10;99.90;;;;;;5039222;28;20041;-72
2021/12/22 03:38:01;;;;;;;18.27;8.60;;;-2.10;99.90;;;;;;5041046;28;20305;-71
2021/12/22 03:40:28;;;;;;;24.25;9.50;;;-2.10;99.90;;;;;;5040234;28;20047;-72
2021/12/22 03:42:54;;;;;;;23.73;9.32;;;-2.10;99.90;;;;;;5029556;28;20067;-71
2021/12/22 03:45:20;;;;;;;19.13;9.57;;;-2.20;99.90;;;;;;5027422;28;20049;-72
2021/12/22 03:47:47;;;;;;;14.75;9.10;;;-2.10;99.90;;;;;;5039570;28;20041;-71
2021/12/22 03:50:13;;;;;;;;;;;-2.10;99.90;;;;;;5040733;28;20029;-72
2021/12/22 03:52:40;;;;;;;19.15;8.27;;;-2.20;99.90;;;;;;5025866;28;19917;-70
2021/12/22 03:55:08;;;;;;;20.90;9.40;;;-2.20;99.90;;;;;;5038540;28;20124;-72
2021/12/22 03:57:33;;;;;;;18.45;9.32;;;-2.20;99.90;;;;;;5006304;28;20448;-75
2021/12/22 04:00:00;;;;;;;15.60;8.73;;;-2.20;99.90;;;;;;5025091;28;20049;-75
2021/12/22 04:02:27;;;;;;;26.70;10.80;;;-2.20;99.90;;;;;;5027100;28;20514;-74
2021/12/22 04:04:53;;;;;;;19.10;8.75;;;-2.20;99.90;;;;;;5001045;28;20049;-72
2021/12/22 04:07:19;;;;;;;22.37;10.93;;;-2.20;99.90;;;;;;5023160;28;20045;-71
2021/12/22 04:09:45;;;;;;;17.55;8.82;;;-2.30;99.90;;;;;;5042537;28;20037;-72
2021/12/22 04:12:11;;;;;;;21.38;10.30;;;-2.30;99.90;;;;;;5034711;28;20033;-72
2021/12/22 04:14:37;;;;;;;17.70;8.98;;;-2.30;99.90;;;;;;5024809;28;20051;-72
2021/12/22 04:17:03;;;;;;;17.90;9.30;;;-2.30;99.90;;;;;;5040136;28;20036;-72
2021/12/22 04:19:29;;;;;;;21.58;10.38;;;-2.30;99.90;;;;;;5034760;28;20083;-72
2021/12/22 04:21:57;;;;;;;20.53;10.00;;;-2.40;99.90;;;;;;5024774;28;20182;-72
2021/12/22 04:24:23;;;;;;;20.55;9.40;;;-2.30;99.90;;;;;;5036535;28;20037;-71
2021/12/22 04:26:51;;;;;;;16.73;10.45;;;-2.40;99.90;;;;;;5012847;28;20352;-72
2021/12/22 04:29:17;;;;;;;18.25;9.02;;;-2.30;99.90;;;;;;5024644;28;20071;-71
2021/12/22 04:31:42;;;;;;;20.85;10.32;;;-2.40;99.90;;;;;;5024949;28;20037;-72
2021/12/22 04:34:08;;;;;;;20.27;10.17;;;-2.40;99.90;;;;;;5030935;28;20056;-72
2021/12/22 04:36:39;;;;;;;20.83;9.40;;;-2.40;99.90;;;;;;5025508;28;20120;-72
2021/12/22 04:39:06;;;;;;;20.77;10.27;;;-2.40;99.90;;;;;;5027114;28;20304;-71
2021/12/22 04:41:32;;;;;;;28.80;10.38;;;-2.40;99.90;;;;;;5046431;28;20037;-71
2021/12/22 04:43:58;;;;;;;19.00;10.25;;;-2.40;99.90;;;;;;5044286;28;20068;-72
2021/12/22 04:46:24;;;;;;;21.27;9.63;;;-2.40;99.90;;;;;;5026664;28;20083;-72
2021/12/22 04:48:50;;;;;;;18.10;10.40;;;-2.40;99.90;;;;;;5029894;28;20037;-72
2021/12/22 04:51:25;;;;;;;18.85;10.15;;;-2.40;99.90;;;;;;5033638;28;20144;-72
2021/12/22 04:56:51;;;;;;;21.55;9.88;;;-2.40;99.90;;;;;;4944366;28;20133;-72
2021/12/22 04:59:17;;;;;;;19.87;9.87;;;-2.40;99.90;;;;;;5016980;28;20080;-71
2021/12/22 05:01:43;;;;;;;24.30;10.20;;;-2.40;99.90;;;;;;5048384;28;20447;-72
2021/12/22 05:04:08;;;;;;;21.07;9.87;;;-2.40;99.90;;;;;;5026160;28;20042;-72
2021/12/22 05:06:35;;;;;;;19.07;9.30;;;-2.40;99.90;;;;;;5025155;28;20388;-71
2021/12/22 05:09:01;;;;;;;23.00;11.07;;;-2.50;99.90;;;;;;5044670;28;20064;-71
2021/12/22 05:11:26;;;;;;;21.33;10.13;;;-2.40;99.90;;;;;;5009458;28;20252;-72
2021/12/22 05:13:52;;;;;;;25.13;10.60;;;-2.50;99.90;;;;;;5043745;28;20045;-72
2021/12/22 05:16:19;;;;;;;27.20;11.20;;;-2.50;99.90;;;;;;5028677;28;20047;-72
2021/12/22 05:21:21;;;;;;;20.63;9.93;;;-2.50;99.90;;;;;;5025826;28;20060;-72
2021/12/22 05:23:48;;;;;;;19.08;9.70;;;-2.50;99.90;;;;;;5014726;28;20083;-72
2021/12/22 05:26:13;;;;;;;22.38;11.27;;;-2.50;99.90;;;;;;5032031;28;20041;-72
2021/12/22 05:28:39;;;;;;;22.47;10.23;;;-2.40;99.90;;;;;;5027980;28;20029;-72
2021/12/22 05:31:04;;;;;;;21.13;9.80;;;-2.50;99.90;;;;;;5041505;28;20078;-72
2021/12/22 05:33:30;;;;;;;21.77;10.00;;;-2.50;99.90;;;;;;5048289;28;20071;-72
2021/12/22 05:35:55;;;;;;;21.77;11.27;;;-2.50;99.90;;;;;;5042751;28;20041;-72
2021/12/22 05:38:21;;;;;;;24.43;10.00;;;-2.50;99.90;;;;;;5020205;28;20041;-72
2021/12/22 05:40:47;;;;;;;16.67;9.13;;;-2.50;99.90;;;;;;5039770;28;20037;-73
2021/12/22 05:43:12;;;;;;;19.97;9.60;;;-2.50;99.90;;;;;;5045250;28;20060;-72
2021/12/22 05:45:38;;;;;;;20.10;10.33;;;-2.50;99.90;;;;;;5024399;28;20053;-72
2021/12/22 05:48:04;;;;;;;16.73;9.57;;;-2.50;99.90;;;;;;5038642;28;20163;-72
2021/12/22 05:50:30;;;;;;;22.90;10.18;;;-2.60;99.90;;;;;;5014303;28;20479;-72
2021/12/22 05:52:55;;;;;;;23.83;9.87;;;-2.50;99.90;;;;;;5027878;28;20068;-73
2021/12/22 05:55:21;;;;;;;19.77;9.77;;;-2.60;99.90;;;;;;5043259;28;20128;-75
2021/12/22 05:57:47;;;;;;;19.33;10.30;;;-2.50;99.90;;;;;;5011886;28;20402;-72
2021/12/22 06:00:13;;;;;;;17.17;8.97;;;-2.60;99.90;;;;;;5042346;28;20048;-73
2021/12/22 06:02:39;;;;;;;;;;;-2.50;99.90;;;;;;5043399;28;20498;-72
2021/12/22 06:05:05;;;;;;;21.45;9.35;;;-2.60;99.90;;;;;;5045506;28;19928;-72
2021/12/22 06:07:31;;;;;;;23.40;9.52;;;-2.60;99.90;;;;;;5023286;28;20374;-73
2021/12/22 06:09:56;;;;;;;20.10;9.20;;;-2.60;99.90;;;;;;5027605;28;20109;-73
2021/12/22 06:12:22;;;;;;;18.93;9.47;;;-2.60;99.90;;;;;;5045226;28;20037;-73
2021/12/22 06:14:47;;;;;;;17.53;9.30;;;-2.60;99.90;;;;;;5030577;28;20623;-74
2021/12/22 06:17:14;;;;;;;18.83;9.70;;;-2.60;99.90;;;;;;5008860;28;20516;-74
2021/12/22 06:19:39;;;;;;;19.02;9.25;;;-2.60;99.90;;;;;;5041147;28;20064;-76
2021/12/22 06:22:05;;;;;;;21.80;10.83;;;-2.60;99.90;;;;;;5030764;28;20437;-71
2021/12/22 06:24:30;;;;;;;19.53;9.97;;;-2.60;99.90;;;;;;5005818;28;20124;-70
2021/12/22 06:26:57;;;;;;;21.03;10.17;;;-2.60;99.90;;;;;;5020975;28;20116;-71
2021/12/22 06:29:24;;;;;;;21.65;10.60;;;-2.60;99.90;;;;;;5043129;28;20037;-70
2021/12/22 06:31:49;;;;;;;21.17;9.88;;;-2.70;99.90;;;;;;5037510;28;20108;-72
2021/12/22 06:34:15;;;;;;;22.97;10.03;;;-2.70;99.90;;;;;;5044356;28;20135;-71
2021/12/22 06:36:41;;;;;;;21.67;9.83;;;-2.70;99.90;;;;;;5041450;28;20047;-70
2021/12/22 06:39:07;;;;;;;21.13;9.17;;;-2.70;99.90;;;;;;5041176;28;20040;-75
2021/12/22 06:41:33;;;;;;;24.85;10.93;;;-2.70;99.90;;;;;;5043908;28;20037;-66
2021/12/22 06:43:59;;;;;;;29.85;12.07;;;-2.70;99.90;;;;;;5030345;28;20052;-67
2021/12/22 06:46:25;;;;;;;34.33;12.07;;;-2.70;99.90;;;;;;5028252;28;20048;-67
2021/12/22 06:48:50;;;;;;;35.83;13.63;;;-2.70;99.90;;;;;;5030281;28;20041;-67
2021/12/22 06:51:16;;;;;;;41.27;13.23;;;-2.80;99.90;;;;;;5032115;28;20183;-67
2021/12/22 06:53:41;;;;;;;35.23;12.87;;;-2.80;99.90;;;;;;5027324;28;20044;-67
2021/12/22 06:56:07;;;;;;;39.60;11.53;;;-2.60;99.90;;;;;;5029453;28;20098;-67
2021/12/22 06:58:33;;;;;;;26.03;11.43;;;-2.80;99.90;;;;;;5045911;28;20507;-67
2021/12/22 07:01:00;;;;;;;29.37;11.03;;;-2.80;99.90;;;;;;5029726;28;20103;-67
2021/12/22 07:03:26;;;;;;;21.92;11.27;;;-2.80;99.90;;;;;;5029262;28;20047;-68
2021/12/22 07:05:55;;;;;;;21.37;9.70;;;-2.80;99.90;;;;;;5046883;28;20049;-67
2021/12/22 07:08:20;;;;;;;22.55;10.27;;;-2.80;99.90;;;;;;5029583;28;20061;-67
2021/12/22 07:10:46;;;;;;;22.83;11.20;;;-2.80;99.90;;;;;;5031565;28;20029;-67
2021/12/22 07:13:14;;;;;;;23.58;10.05;;;-2.80;99.90;;;;;;5040834;28;20041;-67
2021/12/22 07:15:43;;;;;;;23.75;10.32;;;-2.80;99.90;;;;;;5029627;28;20043;-67
2021/12/22 07:18:11;;;;;;;26.27;11.90;;;-2.80;99.90;;;;;;5044470;28;20059;-67
2021/12/22 07:20:38;;;;;;;24.27;10.95;;;-2.80;99.90;;;;;;5029020;28;20043;-67
2021/12/22 07:23:03;;;;;;;29.98;12.15;;;-2.80;99.90;;;;;;5026999;28;20512;-67
2021/12/22 07:25:29;;;;;;;24.63;10.93;;;-2.80;99.90;;;;;;5045985;28;20124;-67
2021/12/22 07:27:55;;;;;;;22.73;9.82;;;-2.80;99.90;;;;;;5027947;28;20037;-67
2021/12/22 07:30:21;;;;;;;28.17;11.90;;;-2.80;99.90;;;;;;5027640;28;20102;-67
2021/12/22 07:32:46;;;;;;;22.50;10.97;;;-2.90;99.90;;;;;;5045197;28;20041;-66
2021/12/22 07:35:24;;;;;;;30.90;12.03;;;-2.80;99.90;;;;;;5038415;28;20509;-67
2021/12/22 07:38:35;;;;;;;36.83;13.05;;;-2.80;99.90;;;;;;5026511;28;20508;-67
2021/12/22 07:41:02;;;;;;;26.88;11.07;;;-2.80;99.90;;;;;;4968329;28;20050;-67
2021/12/22 07:43:29;;;;;;;24.70;12.15;;;-2.80;99.90;;;;;;4967692;28;20099;-67
2021/12/22 07:45:55;;;;;;;37.53;12.32;;;-2.80;99.90;;;;;;4998847;28;20541;-67
2021/12/22 07:48:21;;;;;;;28.15;12.15;;;-2.80;99.90;;;;;;5028988;28;20032;-67
2021/12/22 07:50:47;;;;;;;30.93;10.67;;;-2.80;99.90;;;;;;5031082;28;20043;-67
2021/12/22 07:53:13;;;;;;;25.27;10.98;;;-2.80;99.90;;;;;;5023576;28;20127;-67
2021/12/22 07:55:38;;;;;;;28.80;12.23;;;-2.80;99.90;;;;;;5045901;28;20116;-67
2021/12/22 07:58:04;;;;;;;29.97;11.53;;;-2.80;99.90;;;;;;5044829;28;20040;-67
2021/12/22 08:00:30;;;;;;;39.75;11.90;;;-2.80;99.90;;;;;;5031531;28;20060;-67
2021/12/22 08:02:56;;;;;;;31.77;13.13;;;-2.80;99.90;;;;;;5023698;28;20048;-67
2021/12/22 08:05:22;;;;;;;33.85;12.20;;;-2.80;99.90;;;;;;5027716;28;20044;-67
2021/12/22 08:07:48;;;;;;;27.80;12.30;;;-2.70;99.90;;;;;;5022136;28;20066;-67
2021/12/22 08:10:13;;;;;;;37.63;14.20;;;-2.70;99.90;;;;;;5037778;28;20041;-67
2021/12/22 08:12:39;;;;;;;35.10;12.80;;;-2.80;99.90;;;;;;5028513;28;20045;-67
2021/12/22 08:15:06;;;;;;;27.57;12.13;;;-2.70;99.90;;;;;;5024841;28;20032;-67
2021/12/22 08:17:32;;;;;;;;;;;-2.70;99.90;;;;;;5045768;28;20044;-67
2021/12/22 08:19:59;;;;;;;26.67;11.75;;;-2.60;99.90;;;;;;5028555;28;19952;-67
2021/12/22 08:22:24;;;;;;;24.05;10.40;;;-2.70;99.90;;;;;;5005733;28;20049;-67
2021/12/22 08:24:51;;;;;;;23.33;10.10;;;-2.60;99.90;;;;;;5042956;28;20133;-67
2021/12/22 08:27:18;;;;;;;21.98;12.82;;;-2.60;99.90;;;;;;5024848;28;20099;-67
2021/12/22 08:29:44;;;;;;;23.88;10.82;;;-2.60;99.90;;;;;;5013003;28;20044;-67
2021/12/22 08:32:13;;;;;;;23.77;11.07;;;-2.50;99.90;;;;;;5045825;28;20188;-67
2021/12/22 08:34:41;;;;;;;22.73;10.38;;;-2.50;99.90;;;;;;5045257;28;20126;-67
2021/12/22 08:39:53;;;;;;;28.55;10.23;;;-2.50;99.90;;;;;;5030530;28;20052;-67
2021/12/22 08:42:19;;;;;;;27.10;9.93;;;-2.40;99.90;;;;;;5042310;28;20041;-67
2021/12/22 08:44:45;;;;;;;20.10;10.10;;;-2.40;99.90;;;;;;5027401;28;20044;-67
2021/12/22 08:47:11;;;;;;;25.95;10.20;;;-2.40;99.90;;;;;;5044797;28;20467;-67
2021/12/22 08:49:36;;;;;;;23.00;9.47;;;-2.30;99.90;;;;;;5041741;28;20041;-67
2021/12/22 08:52:03;;;;;;;22.53;9.83;;;-2.30;99.90;;;;;;5026473;28;20033;-67
2021/12/22 08:54:29;;;;;;;26.55;10.38;;;-2.20;99.90;;;;;;5027045;28;20052;-67
2021/12/22 08:56:55;;;;;;;24.00;10.63;;;-2.20;99.90;;;;;;5029994;28;20066;-67
2021/12/22 08:59:22;;;;;;;25.17;10.60;;;-2.20;99.90;;;;;;5028173;28;20086;-67
2021/12/22 09:01:48;;;;;;;24.77;11.25;;;-2.20;99.90;;;;;;5041740;28;20036;-67
2021/12/22 09:04:14;;;;;;;26.15;10.55;;;-2.20;99.90;;;;;;5042504;28;20041;-67
2021/12/22 09:06:41;;;;;;;20.23;9.60;;;-2.10;99.90;;;;;;5028668;28;20723;-67
2021/12/22 09:09:10;;;;;;;21.58;10.27;;;-2.10;99.90;;;;;;5042675;28;20116;-67
2021/12/22 09:11:37;;;;;;;24.52;10.20;;;-2.10;99.90;;;;;;5042616;28;20059;-67
2021/12/22 09:14:20;;;;;;;31.77;10.93;;;-2.00;99.90;;;;;;5068131;22;20036;-84
2021/12/22 09:21:36;;;;;;;;;;;;;;;;;;;;;
2021/12/22 09:28:38;;;;;;;20.23;8.93;;;-2.00;99.90;;;;;;5037244;28;20093;-84
2021/12/22 09:39:11;;;;;;;18.45;9.88;;;-1.70;99.90;;;;;;4922162;29;20074;-84
2021/12/22 09:42:02;;;;;;;20.33;9.93;;;-1.70;99.90;;;;;;4924772;29;20145;-82
2021/12/22 09:52:18;;;;;;;21.05;10.05;;;-1.60;99.90;;;;;;4889962;29;20045;-83
2021/12/22 09:55:30;;;;;;;23.63;9.98;;;-1.50;99.90;;;;;;5007481;28;20045;-84
2021/12/22 10:02:18;;;;;;;25.42;10.82;;;-1.30;99.90;;;;;;5023530;28;20044;-82
2021/12/22 10:08:40;;;;;;;18.45;9.05;;;-1.20;99.90;;;;;;4996887;28;20080;-84
2021/12/22 10:15:57;;;;;;;22.98;10.13;;;-1.00;99.90;;;;;;4999685;28;20045;-84
2021/12/22 10:18:52;;;;;;;21.30;9.32;;;-0.90;99.90;;;;;;4944870;28;20051;-84
2021/12/22 10:22:11;;;;;;;20.88;9.25;;;-0.90;99.90;;;;;;4980780;28;20060;-83
2021/12/22 10:25:50;;;;;;;24.42;8.90;;;-0.90;99.90;;;;;;5014846;28;20434;-84
2021/12/22 10:28:50;;;;;;;25.10;10.10;;;-0.80;99.90;;;;;;4933743;28;20181;-83
2021/12/22 10:31:46;;;;;;;25.30;10.35;;;-0.70;99.90;;;;;;4931679;28;20108;-83
2021/12/22 10:34:18;;;;;;;23.65;9.60;;;-0.70;99.90;;;;;;5011759;28;20045;-83
2021/12/22 10:40:37;;;;;;;25.45;10.23;;;-0.60;99.90;;;;;;4944892;28;20050;-83
2021/12/22 10:43:19;;;;;;;25.13;10.15;;;-0.50;99.90;;;;;;4981614;28;20045;-82
2021/12/22 10:46:58;;;;;;;25.40;10.77;;;-0.40;99.90;;;;;;4995040;28;20058;-83
2021/12/22 10:49:32;;;;;;;20.52;9.27;;;-0.30;99.90;;;;;;4934466;28;20043;-82
2021/12/22 10:52:03;;;;;;;22.10;10.63;;;-0.30;99.90;;;;;;4958155;28;20034;-82
2021/12/22 10:54:38;;;;;;;23.20;9.88;;;-0.20;99.90;;;;;;4979384;28;20053;-83
2021/12/22 10:57:13;;;;;;;21.25;10.57;;;-0.20;99.90;;;;;;4997889;28;20428;-82
2021/12/22 11:00:40;;;;;;;22.80;9.63;;;-0.20;99.90;;;;;;4980260;28;20108;-83
2021/12/22 11:03:42;;;;;;;21.00;10.60;;;-0.20;99.90;;;;;;4974627;28;20073;-80
2021/12/22 11:06:48;;;;;;;28.92;11.23;;;-0.10;99.90;;;;;;4981176;28;20088;-82
2021/12/22 11:15:44;;;;;;;22.83;10.00;;;0.00;99.90;;;;;;5017949;22;20041;-69
2021/12/22 11:18:23;;;;;;;18.95;10.32;;;0.00;99.90;;;;;;5005009;28;20045;-67
2021/12/22 11:21:17;;;;;;;29.55;10.90;;;0.00;99.90;;;;;;5005304;28;20493;-67
2021/12/22 11:23:43;;;;;;;25.50;11.70;;;0.00;99.90;;;;;;5000823;28;20073;-67
2021/12/22 11:26:12;;;;;;;19.70;8.88;;;0.00;99.90;;;;;;5005275;28;20099;-69
2021/12/22 11:28:38;;;;;;;26.27;11.05;;;0.00;99.90;;;;;;5006836;28;20042;-69
2021/12/22 11:31:05;;;;;;;21.45;10.57;;;0.00;99.90;;;;;;5004794;28;20034;-69
2021/12/22 11:33:33;;;;;;;25.92;11.20;;;0.10;99.90;;;;;;5002154;28;20156;-69
2021/12/22 11:35:59;;;;;;;21.52;9.40;;;0.10;99.90;;;;;;5006059;28;20104;-69
2021/12/22 11:38:26;;;;;;;24.00;10.45;;;0.20;99.90;;;;;;5000722;28;20077;-69
2021/12/22 11:40:56;;;;;;;22.60;11.10;;;0.20;99.90;;;;;;4997173;28;20056;-69
2021/12/22 11:43:22;;;;;;;19.50;9.02;;;0.20;99.90;;;;;;4999245;28;20042;-69
2021/12/22 11:45:50;;;;;;;19.13;10.10;;;0.30;99.90;;;;;;5001383;28;20099;-69
2021/12/22 11:48:16;;;;;;;21.35;10.65;;;0.30;99.90;;;;;;5002019;28;20041;-69
2021/12/22 11:50:46;;;;;;;23.92;10.95;;;0.40;99.90;;;;;;4987778;28;20033;-69
2021/12/22 11:53:12;;;;;;;19.15;9.00;;;0.40;99.90;;;;;;5002542;28;20034;-69
2021/12/22 11:55:48;;;;;;;26.23;10.45;;;0.40;99.90;;;;;;5000003;28;20048;-70
2021/12/22 11:58:36;;;;;;;23.90;10.88;;;0.40;99.90;;;;;;5002187;28;20085;-70
2021/12/22 12:01:12;;;;;;;20.40;9.95;;;0.40;99.90;;;;;;4996908;28;20123;-67
2021/12/22 12:03:41;;;;;;;17.67;8.98;;;0.50;99.90;;;;;;4999346;28;20034;-67
2021/12/22 12:06:11;;;;;;;27.02;10.68;;;0.50;99.90;;;;;;4986830;28;20073;-67
2021/12/22 12:08:40;;;;;;;24.70;10.80;;;0.50;99.90;;;;;;5001753;28;20403;-67
2021/12/22 12:11:12;;;;;;;23.85;10.00;;;0.60;99.90;;;;;;5004101;28;20045;-67
2021/12/22 12:13:46;;;;;;;20.30;9.48;;;0.60;99.90;;;;;;5005688;28;20046;-67
2021/12/22 12:21:58;;;;;;;25.40;9.98;;;0.70;99.90;;;;;;5003998;28;20045;-67
2021/12/22 12:24:34;;;;;;;21.25;10.10;;;0.80;99.90;;;;;;4999906;28;20153;-67
2021/12/22 12:27:20;;;;;;;19.55;9.43;;;0.80;99.90;;;;;;5001440;28;20073;-67
2021/12/22 12:30:24;;;;;;;22.02;9.10;;;0.90;99.90;;;;;;4996942;28;20621;-67
2021/12/22 12:32:49;;;;;;;21.05;10.00;;;0.90;99.90;;;;;;5003242;28;20419;-67
2021/12/22 12:35:22;;;;;;;18.13;9.20;;;0.90;99.90;;;;;;4999965;28;20052;-67
2021/12/22 12:38:09;;;;;;;24.08;10.18;;;0.90;99.90;;;;;;5002515;28;20549;-67
2021/12/22 12:41:00;;;;;;;20.60;9.45;;;0.90;99.90;;;;;;5001378;28;20048;-67
2021/12/22 12:46:28;;;;;;;21.13;9.88;;;0.90;99.90;;;;;;5001385;28;20565;-69
2021/12/22 12:49:26;;;;;;;22.37;10.30;;;0.80;99.90;;;;;;4997815;28;20248;-69
2021/12/22 12:51:52;;;;;;;18.50;9.55;;;0.80;99.90;;;;;;5003340;28;20140;-69
2021/12/22 12:54:17;;;;;;;23.00;9.87;;;0.90;99.90;;;;;;5005540;28;20163;-69
2021/12/22 12:56:49;;;;;;;18.60;9.10;;;0.80;99.90;;;;;;5002693;28;20172;-69
2021/12/22 12:59:38;;;;;;;17.98;8.52;;;0.80;99.90;;;;;;5012226;28;20486;-69
2021/12/22 13:02:11;;;;;;;18.52;10.23;;;0.80;99.90;;;;;;5001656;28;20092;-69
2021/12/22 13:04:39;;;;;;;17.88;8.65;;;0.70;99.90;;;;;;5005391;28;20198;-69
2021/12/22 13:07:14;;;;;;;21.45;9.90;;;0.80;99.90;;;;;;5004315;28;20044;-69
2021/12/22 13:09:48;;;;;;;20.60;9.95;;;0.70;99.90;;;;;;5008797;28;20038;-69
2021/12/22 13:18:06;;;;;;;20.50;9.82;;;0.70;99.90;;;;;;5007651;28;20049;-69
2021/12/22 13:20:37;;;;;;;21.33;9.30;;;0.70;99.90;;;;;;4991645;28;20497;-69
2021/12/22 13:23:05;;;;;;;16.85;9.13;;;0.70;99.90;;;;;;5002893;28;20121;-70
2021/12/22 13:25:34;;;;;;;20.83;9.70;;;0.70;99.90;;;;;;5004407;28;20046;-69
2021/12/22 13:28:18;;;;;;;18.02;9.00;;;0.70;99.90;;;;;;5006899;28;20046;-69
2021/12/22 13:30:56;;;;;;;20.88;9.52;;;0.60;99.90;;;;;;5001821;28;20038;-70
2021/12/22 13:33:28;;;;;;;20.13;9.05;;;0.60;99.90;;;;;;5003849;28;20494;-70
2021/12/22 13:35:59;;;;;;;17.65;9.48;;;0.50;99.90;;;;;;5004537;28;20108;-70
2021/12/22 13:38:29;;;;;;;15.45;8.43;;;0.50;99.90;;;;;;5007339;28;20114;-70
2021/12/22 13:41:09;;;;;;;18.00;9.20;;;0.50;99.90;;;;;;5001564;28;20061;-70
2021/12/22 13:43:39;;;;;;;23.00;10.80;;;0.40;99.90;;;;;;5021060;28;20038;-70
2021/12/22 13:46:09;;;;;;;24.80;10.05;;;0.40;99.90;;;;;;5006806;28;20124;-70
2021/12/22 13:48:42;;;;;;;18.83;9.07;;;0.40;99.90;;;;;;5002860;28;20038;-70
2021/12/22 13:51:09;;;;;;;22.73;8.98;;;0.30;99.90;;;;;;5007514;28;20525;-70
2021/12/22 13:53:38;;;;;;;17.52;8.80;;;0.30;99.90;;;;;;5005384;28;20072;-70
2021/12/22 13:56:04;;;;;;;17.55;8.82;;;0.30;99.90;;;;;;5017561;28;20088;-70
2021/12/22 13:58:42;;;;;;;21.40;10.63;;;0.40;99.90;;;;;;5006174;28;20050;-70
2021/12/22 14:01:35;;;;;;;25.60;12.07;;;0.30;99.90;;;;;;5002471;28;20341;-70
2021/12/22 14:04:03;;;;;;;23.83;11.57;;;0.30;99.90;;;;;;5005625;28;20043;-70
2021/12/22 14:06:45;;;;;;;26.52;10.90;;;0.30;99.90;;;;;;5003675;28;20509;-70
2021/12/22 14:09:30;;;;;;;17.52;9.15;;;0.30;99.90;;;;;;5007740;28;20042;-71
2021/12/22 14:11:59;;;;;;;20.48;9.38;;;0.30;99.90;;;;;;5004546;28;20092;-70
2021/12/22 14:14:31;;;;;;;23.20;9.80;;;0.40;99.90;;;;;;5003571;28;20031;-70
2021/12/22 14:17:03;;;;;;;21.58;8.82;;;0.30;99.90;;;;;;5007056;28;20291;-70
2021/12/22 14:19:48;;;;;;;23.30;9.90;;;0.30;99.90;;;;;;5001965;28;20128;-70
2021/12/22 14:22:16;;;;;;;20.15;9.55;;;0.30;99.90;;;;;;5001962;28;20236;-70
2021/12/22 14:24:47;;;;;;;15.45;8.60;;;0.30;99.90;;;;;;5002542;28;20077;-70
2021/12/22 14:27:15;;;;;;;20.25;9.48;;;0.30;99.90;;;;;;5008522;28;20317;-70
2021/12/22 14:29:52;;;;;;;17.92;8.05;;;0.30;99.90;;;;;;5006798;28;20053;-70
2021/12/22 14:32:34;;;;;;;16.95;8.88;;;0.20;99.90;;;;;;5001638;28;20040;-70
2021/12/22 14:35:12;;;;;;;19.13;8.52;;;0.10;99.90;;;;;;5009314;28;20384;-71
2021/12/22 14:37:39;;;;;;;;;;;0.10;99.90;;;;;;5004795;28;20506;-70
2021/12/22 14:40:19;;;;;;;18.00;8.27;;;0.00;99.90;;;;;;5005229;28;19917;-70
2021/12/22 14:43:01;;;;;;;20.65;8.70;;;0.00;99.90;;;;;;5004729;28;20108;-70
2021/12/22 14:45:42;;;;;;;19.17;8.48;;;0.00;99.90;;;;;;5003975;28;20057;-70
2021/12/22 14:48:30;;;;;;;18.33;8.52;;;0.00;99.90;;;;;;5001858;28;20088;-70
2021/12/22 14:51:09;;;;;;;19.98;8.75;;;-0.10;99.90;;;;;;5007059;28;20089;-70
2021/12/22 14:53:37;;;;;;;17.27;8.90;;;-0.10;99.90;;;;;;5002774;28;20049;-70
2021/12/22 14:56:08;;;;;;;15.80;8.10;;;-0.20;99.90;;;;;;5006331;28;20053;-70
2021/12/22 14:58:33;;;;;;;17.42;9.27;;;-0.20;99.90;;;;;;5003706;28;20038;-70
2021/12/22 15:01:00;;;;;;;19.27;8.97;;;-0.30;99.90;;;;;;5003055;28;20067;-70